createdAt,value
2022-10-23T00:01:28.387Z,10.92
2022-10-23T00:04:07.276Z,10.97
2022-10-23T00:06:35.261Z,11.05
2022-10-23T00:09:02.757Z,11.03
2022-10-23T00:11:30.752Z,11.07
2022-10-23T00:13:59.783Z,11.06
2022-10-23T00:16:27.112Z,11.07
2022-10-23T00:18:53.534Z,11.00
2022-10-23T00:21:20.690Z,10.97
2022-10-23T00:23:47.150Z,10.87
2022-10-23T00:26:16.847Z,10.83
2022-10-23T00:28:44.855Z,10.81
2022-10-23T00:31:12.266Z,10.82
2022-10-23T00:33:38.778Z,10.87
2022-10-23T00:36:08.299Z,10.83
2022-10-23T00:38:36.005Z,10.82
2022-10-23T00:41:02.714Z,10.85
2022-10-23T00:43:30.821Z,10.78
2022-10-23T00:45:57.926Z,10.77
2022-10-23T00:48:25.910Z,10.69
2022-10-23T00:50:52.831Z,10.68
2022-10-23T00:53:20.969Z,10.62
2022-10-23T00:55:50.413Z,10.60
2022-10-23T00:58:19.236Z,10.59
2022-10-23T01:00:51.804Z,10.65
2022-10-23T01:03:20.359Z,10.75
2022-10-23T01:06:05.495Z,10.84
2022-10-23T01:08:38.780Z,10.89
2022-10-23T01:11:12.090Z,10.90
2022-10-23T01:13:54.842Z,10.87
2022-10-23T01:16:28.644Z,10.91
2022-10-23T01:19:07.130Z,10.91
2022-10-23T01:22:00.260Z,10.88
2022-10-23T01:24:45.803Z,10.83
2022-10-23T01:27:24.400Z,10.79
2022-10-23T01:30:06.339Z,10.81
2022-10-23T01:32:45.289Z,10.86
2022-10-23T01:35:16.552Z,10.81
2022-10-23T01:38:03.418Z,10.80
2022-10-23T01:40:35.896Z,10.77
2022-10-23T01:43:09.642Z,10.82
2022-10-23T01:45:40.964Z,10.82
2022-10-23T01:48:12.525Z,10.83
2022-10-23T01:50:41.842Z,10.86
2022-10-23T01:53:08.499Z,10.82
2022-10-23T01:55:38.146Z,10.80
2022-10-23T01:58:08.326Z,10.82
2022-10-23T02:00:39.039Z,10.82
2022-10-23T02:03:07.711Z,10.84
2022-10-23T02:05:34.212Z,10.86
2022-10-23T02:08:01.095Z,10.87
2022-10-23T02:10:39.909Z,10.83
2022-10-23T02:13:13.014Z,10.87
2022-10-23T02:15:50.252Z,10.87
2022-10-23T02:18:43.408Z,10.80
2022-10-23T02:21:31.113Z,10.86
2022-10-23T02:24:09.322Z,10.87
2022-10-23T02:26:43.508Z,10.84
2022-10-23T02:29:19.738Z,10.83
2022-10-23T02:31:46.127Z,10.87
2022-10-23T02:34:12.536Z,10.85
2022-10-23T02:36:39.042Z,10.85
2022-10-23T02:39:05.744Z,10.82
2022-10-23T02:41:49.063Z,10.83
2022-10-23T02:44:37.637Z,10.89
2022-10-23T02:47:36.533Z,10.84
2022-10-23T02:50:15.051Z,10.85
2022-10-23T02:53:10.637Z,10.79
2022-10-23T02:55:49.071Z,10.81
2022-10-23T02:58:34.828Z,10.78
2022-10-23T03:01:15.989Z,10.78
2022-10-23T03:03:48.456Z,10.78
2022-10-23T03:06:16.315Z,10.78
2022-10-23T03:08:49.773Z,10.80
2022-10-23T03:11:16.076Z,10.82
2022-10-23T03:13:42.375Z,10.79
2022-10-23T03:16:08.926Z,10.76
2022-10-23T03:18:35.478Z,10.76
2022-10-23T03:21:01.850Z,10.73
2022-10-23T03:23:28.180Z,10.71
2022-10-23T03:47:26.537Z,10.69
2022-10-23T03:49:52.871Z,10.67
2022-10-23T03:52:19.209Z,10.62
2022-10-23T03:54:45.625Z,10.59
2022-10-23T03:57:12.239Z,10.52
2022-10-23T03:59:38.575Z,10.47
2022-10-23T04:02:04.973Z,10.40
2022-10-23T04:04:33.842Z,10.37
2022-10-23T04:07:00.117Z,10.32
2022-10-23T04:09:26.520Z,10.30
2022-10-23T04:11:52.899Z,10.23
2022-10-23T04:14:19.218Z,10.23
2022-10-23T04:16:45.531Z,10.21
2022-10-23T04:19:11.868Z,10.13
2022-10-23T04:21:38.228Z,10.12
2022-10-23T04:24:04.931Z,10.08
2022-10-23T04:26:31.227Z,10.07
2022-10-23T04:28:57.602Z,10.08
2022-10-23T04:31:23.958Z,10.00
2022-10-23T04:33:50.372Z,9.97
2022-10-23T04:36:16.788Z,9.91
2022-10-23T04:38:43.315Z,9.89
2022-10-23T04:41:09.982Z,9.85
2022-10-23T04:43:36.949Z,9.87
2022-10-23T04:46:03.574Z,9.81
2022-10-23T04:48:30.307Z,9.79
2022-10-23T04:50:58.412Z,9.74
2022-10-23T04:53:25.913Z,9.71
2022-10-23T04:55:54.493Z,9.72
2022-10-23T04:58:21.380Z,9.65
2022-10-23T05:00:48.915Z,9.61
2022-10-23T05:03:16.510Z,9.57
2022-10-23T05:05:43.332Z,9.53
2022-10-23T05:08:14.233Z,9.51
2022-10-23T05:10:43.545Z,9.47
2022-10-23T05:13:09.912Z,9.49
2022-10-23T05:15:36.219Z,9.50
2022-10-23T05:18:11.384Z,9.50
2022-10-23T05:20:39.108Z,9.50
2022-10-23T05:23:09.464Z,9.45
2022-10-23T05:25:36.487Z,9.38
2022-10-23T05:28:02.951Z,9.31
2022-10-23T05:30:29.429Z,9.27
2022-10-23T05:32:55.860Z,9.29
2022-10-23T05:35:23.426Z,9.31
2022-10-23T05:37:52.382Z,9.35
2022-10-23T05:40:19.192Z,9.28
2022-10-23T05:42:45.801Z,9.25
2022-10-23T05:45:12.469Z,9.27
2022-10-23T05:47:38.864Z,9.25
2022-10-23T05:50:05.555Z,9.23
2022-10-23T05:52:31.883Z,9.20
2022-10-23T05:54:58.171Z,9.19
2022-10-23T05:57:24.483Z,9.19
2022-10-23T05:59:50.833Z,9.19
2022-10-23T06:02:17.199Z,9.19
2022-10-23T06:04:43.584Z,9.17
2022-10-23T06:07:09.910Z,9.21
2022-10-23T06:09:36.277Z,9.19
2022-10-23T06:12:02.890Z,9.18
2022-10-23T06:14:29.162Z,9.17
2022-10-23T06:16:55.556Z,9.22
2022-10-23T06:19:21.929Z,9.23
2022-10-23T06:21:48.365Z,9.27
2022-10-23T06:24:14.764Z,9.17
2022-10-23T06:26:41.244Z,9.21
2022-10-23T06:29:07.931Z,9.19
2022-10-23T06:31:34.303Z,9.20
2022-10-23T06:34:00.704Z,9.21
2022-10-23T06:36:27.673Z,9.23
2022-10-23T06:38:56.373Z,9.24
2022-10-23T06:41:23.119Z,9.26
2022-10-23T06:43:51.031Z,9.30
2022-10-23T06:46:18.963Z,9.35
2022-10-23T06:48:45.315Z,9.34
2022-10-23T06:51:13.987Z,9.38
2022-10-23T06:53:40.699Z,9.37
2022-10-23T06:56:08.127Z,9.41
2022-10-23T06:58:35.895Z,9.45
2022-10-23T07:01:05.078Z,9.45
2022-10-23T07:03:31.912Z,9.50
2022-10-23T07:06:03.105Z,9.56
2022-10-23T07:08:29.556Z,9.63
2022-10-23T07:10:56.715Z,9.67
2022-10-23T07:13:24.816Z,9.79
2022-10-23T07:15:51.505Z,9.80
2022-10-23T07:18:19.348Z,9.87
2022-10-23T07:20:49.232Z,9.97
2022-10-23T07:23:16.270Z,10.08
2022-10-23T07:25:42.998Z,10.14
2022-10-23T07:28:10.557Z,10.15
2022-10-23T07:30:36.981Z,10.19
2022-10-23T07:33:03.485Z,10.18
2022-10-23T07:35:32.983Z,10.22
2022-10-23T07:38:02.188Z,10.33
2022-10-23T07:40:28.616Z,10.44
2022-10-23T07:42:56.590Z,10.55
2022-10-23T07:45:23.037Z,10.57
2022-10-23T07:47:52.564Z,10.69
2022-10-23T07:50:19.310Z,10.76
2022-10-23T07:52:47.315Z,10.81
2022-10-23T07:55:14.719Z,10.89
2022-10-23T07:57:41.147Z,11.04
2022-10-23T08:00:08.026Z,11.05
2022-10-23T08:02:36.390Z,11.14
2022-10-23T08:05:03.186Z,11.14
2022-10-23T08:07:29.566Z,11.26
2022-10-23T08:09:55.960Z,11.32
2022-10-23T08:12:22.359Z,11.37
2022-10-23T08:14:48.675Z,11.39
2022-10-23T08:17:15.118Z,11.32
2022-10-23T08:19:46.210Z,11.32
2022-10-23T08:22:13.088Z,11.49
2022-10-23T08:24:39.420Z,11.52
2022-10-23T08:27:05.794Z,11.53
2022-10-23T08:29:32.279Z,11.58
2022-10-23T08:31:58.638Z,11.69
2022-10-23T08:34:25.150Z,11.78
2022-10-23T08:36:51.538Z,12.00
2022-10-23T08:39:17.898Z,12.13
2022-10-23T08:41:49.995Z,12.15
2022-10-23T08:44:30.615Z,12.22
2022-10-23T08:47:19.530Z,12.34
2022-10-23T08:49:55.555Z,12.28
2022-10-23T08:52:45.120Z,12.29
2022-10-23T08:55:20.541Z,12.47
2022-10-23T08:58:05.667Z,12.60
2022-10-23T09:00:32.702Z,12.51
2022-10-23T09:03:02.989Z,12.58
2022-10-23T09:05:37.202Z,12.71
2022-10-23T09:08:24.536Z,12.87
2022-10-23T09:11:05.020Z,12.89
2022-10-23T09:13:55.018Z,12.93
2022-10-23T09:16:43.154Z,13.05
2022-10-23T09:19:19.078Z,13.11
2022-10-23T09:21:49.863Z,13.20
2022-10-23T09:24:19.397Z,13.30
2022-10-23T09:26:51.143Z,13.36
2022-10-23T09:29:32.702Z,13.32
2022-10-23T09:32:01.652Z,13.35
2022-10-23T09:34:30.939Z,13.48
2022-10-23T09:37:03.922Z,13.44
2022-10-23T09:39:36.023Z,13.58
2022-10-23T09:42:20.685Z,13.69
2022-10-23T09:44:49.953Z,13.72
2022-10-23T09:47:20.624Z,13.76
2022-10-23T09:49:49.675Z,13.81
2022-10-23T09:52:16.613Z,13.90
2022-10-23T09:54:53.931Z,13.89
2022-10-23T09:57:38.163Z,13.91
2022-10-23T10:00:26.552Z,13.97
2022-10-23T10:03:02.536Z,14.02
2022-10-23T10:05:37.414Z,13.98
2022-10-23T10:08:14.269Z,14.00
2022-10-23T10:11:27.567Z,14.14
2022-10-23T10:14:15.669Z,14.14
2022-10-23T10:17:04.768Z,14.13
2022-10-23T10:19:48.282Z,14.28
2022-10-23T10:22:42.514Z,14.10
2022-10-23T10:25:33.981Z,14.11
2022-10-23T10:28:00.304Z,14.05
2022-10-23T10:30:36.689Z,14.05
2022-10-23T10:33:14.854Z,14.20
2022-10-23T10:35:46.027Z,14.34
2022-10-23T10:38:34.901Z,14.49
2022-10-23T10:41:04.585Z,14.42
2022-10-23T10:43:54.785Z,14.42
2022-10-23T10:46:46.662Z,14.58
2022-10-23T10:49:19.299Z,14.50
2022-10-23T10:52:08.059Z,14.51
2022-10-23T10:54:34.375Z,14.62
2022-10-23T10:57:05.231Z,14.53
2022-10-23T10:59:38.131Z,14.59
2022-10-23T11:02:33.723Z,14.73
2022-10-23T11:05:14.288Z,14.81
2022-10-23T11:07:52.413Z,14.80
2022-10-23T11:10:19.994Z,14.85
2022-10-23T11:12:47.915Z,14.88
2022-10-23T11:15:21.819Z,14.81
2022-10-23T11:17:53.568Z,14.90
2022-10-23T11:20:26.631Z,14.99
2022-10-23T11:23:09.642Z,15.04
2022-10-23T11:25:52.532Z,14.98
2022-10-23T11:28:27.704Z,14.92
2022-10-23T11:31:11.725Z,15.03
2022-10-23T11:33:57.044Z,15.10
2022-10-23T11:36:44.312Z,15.13
2022-10-23T11:39:22.808Z,15.14
2022-10-23T11:41:53.032Z,15.07
2022-10-23T11:44:44.581Z,15.16
2022-10-23T11:47:31.295Z,15.36
2022-10-23T11:50:13.514Z,15.34
2022-10-23T11:53:13.287Z,15.33
2022-10-23T11:55:41.958Z,15.41
2022-10-23T11:58:20.225Z,15.41
2022-10-23T12:01:24.163Z,15.44
2022-10-23T12:04:13.773Z,15.46
2022-10-23T12:06:44.509Z,15.53
2022-10-23T12:09:40.732Z,15.47
2022-10-23T12:12:06.966Z,15.50
2022-10-23T12:14:40.649Z,15.57
2022-10-23T12:17:22.223Z,15.78
2022-10-23T12:20:19.157Z,15.87
2022-10-23T12:22:58.441Z,15.88
2022-10-23T12:25:37.668Z,15.87
2022-10-23T12:28:30.711Z,15.83
2022-10-23T12:31:28.008Z,15.92
2022-10-23T12:34:31.708Z,15.84
2022-10-23T12:37:32.186Z,16.01
2022-10-23T12:39:59.340Z,16.02
2022-10-23T12:42:28.343Z,16.04
2022-10-23T12:45:10.403Z,16.02
2022-10-23T12:50:03.497Z,16.02
2022-10-23T12:52:29.842Z,16.09
2022-10-23T12:54:56.177Z,15.90
2022-10-23T12:57:23.798Z,15.91
2022-10-23T12:59:53.386Z,15.67
2022-10-23T13:02:28.902Z,15.56
2022-10-23T13:04:58.132Z,15.65
2022-10-23T13:07:31.502Z,15.63
2022-10-23T13:09:58.827Z,15.58
2022-10-23T13:12:31.372Z,15.61
2022-10-23T13:15:07.894Z,15.63
2022-10-23T13:17:36.988Z,15.62
2022-10-23T13:20:18.579Z,15.64
2022-10-23T13:22:47.712Z,15.59
2022-10-23T13:25:26.440Z,15.54
2022-10-23T13:28:11.471Z,15.49
2022-10-23T13:30:42.607Z,15.49
2022-10-23T13:33:21.251Z,15.52
2022-10-23T13:36:21.223Z,15.48
2022-10-23T13:38:59.384Z,15.37
2022-10-23T13:41:27.463Z,15.27
2022-10-23T13:43:53.869Z,15.20
2022-10-23T13:46:23.049Z,15.24
2022-10-23T13:48:49.408Z,15.18
2022-10-23T13:51:27.482Z,15.11
2022-10-23T13:53:54.933Z,15.14
2022-10-23T13:56:23.531Z,15.19
2022-10-23T13:58:50.556Z,15.14
2022-10-23T14:01:20.139Z,15.02
2022-10-23T14:03:47.517Z,15.00
2022-10-23T14:06:13.910Z,15.04
2022-10-23T14:08:40.376Z,14.88
2022-10-23T14:11:07.204Z,14.99
2022-10-23T14:13:33.551Z,14.99
2022-10-23T14:15:59.881Z,15.00
2022-10-23T14:18:26.180Z,15.04
2022-10-23T14:20:52.656Z,15.03
2022-10-23T14:23:18.948Z,15.03
2022-10-23T14:25:45.246Z,15.00
2022-10-23T14:28:11.535Z,14.95
2022-10-23T14:30:37.860Z,14.92
2022-10-23T14:33:04.721Z,14.88
2022-10-23T14:35:31.045Z,14.78
2022-10-23T14:37:58.408Z,14.74
2022-10-23T14:40:25.313Z,14.78
2022-10-23T14:42:51.680Z,14.80
2022-10-23T14:45:18.087Z,14.80
2022-10-23T14:47:44.828Z,14.82
2022-10-23T14:50:13.058Z,14.80
2022-10-23T14:52:39.377Z,14.79
2022-10-23T14:55:06.028Z,14.69
2022-10-23T14:57:32.424Z,14.58
2022-10-23T14:59:58.709Z,14.54
2022-10-23T15:02:25.024Z,14.48
2022-10-23T15:04:51.349Z,14.51
2022-10-23T15:07:17.686Z,14.51
2022-10-23T15:09:43.983Z,14.47
2022-10-23T15:12:10.694Z,14.49
2022-10-23T15:14:37.187Z,14.43
2022-10-23T15:17:04.074Z,14.38
2022-10-23T15:19:30.432Z,14.37
2022-10-23T15:21:56.903Z,14.35
2022-10-23T15:24:23.221Z,14.36
2022-10-23T15:26:51.498Z,14.41
2022-10-23T15:29:19.309Z,14.44
2022-10-23T15:31:53.594Z,14.37
2022-10-23T15:34:25.769Z,14.33
2022-10-23T15:36:52.860Z,14.21
2022-10-23T15:39:22.351Z,14.22
2022-10-23T15:41:51.444Z,14.19
2022-10-23T15:44:19.861Z,14.17
2022-10-23T15:46:48.540Z,14.14
2022-10-23T15:49:15.477Z,14.12
2022-10-23T15:51:42.979Z,14.08
2022-10-23T15:54:13.029Z,14.08
2022-10-23T15:56:39.425Z,14.04
2022-10-23T15:59:05.763Z,14.03
2022-10-23T16:01:32.126Z,14.04
2022-10-23T16:03:58.580Z,14.01
2022-10-23T16:06:25.057Z,13.98
2022-10-23T16:08:51.488Z,14.01
2022-10-23T16:11:21.173Z,13.95
2022-10-23T16:13:47.583Z,13.95
2022-10-23T16:16:14.205Z,13.91
2022-10-23T16:18:40.875Z,13.93
2022-10-23T16:21:07.779Z,13.94
2022-10-23T16:23:34.517Z,13.94
2022-10-23T16:26:05.152Z,13.98
2022-10-23T16:28:32.143Z,13.95
2022-10-23T16:30:59.031Z,13.94
2022-10-23T16:33:25.444Z,13.95
2022-10-23T16:35:51.796Z,13.94
2022-10-23T16:38:18.170Z,13.97
2022-10-23T16:40:50.934Z,14.03
2022-10-23T16:43:17.273Z,13.98
2022-10-23T16:45:43.646Z,14.01
2022-10-23T16:48:09.986Z,14.01
2022-10-23T16:53:10.455Z,14.02
2022-10-23T16:55:40.543Z,14.08
2022-10-23T16:58:06.947Z,14.04
2022-10-23T17:00:34.958Z,14.07
2022-10-23T17:03:03.207Z,14.01
2022-10-23T17:05:34.040Z,14.03
2022-10-23T17:08:00.736Z,14.03
2022-10-23T17:10:27.522Z,14.07
2022-10-23T17:12:53.899Z,14.04
2022-10-23T17:15:20.785Z,14.03
2022-10-23T17:17:47.133Z,14.05
2022-10-23T17:20:13.486Z,14.03
2022-10-23T17:22:39.830Z,14.03
2022-10-23T17:25:06.931Z,14.03
2022-10-23T17:27:33.237Z,13.99
2022-10-23T17:29:59.581Z,13.94
2022-10-23T17:32:27.570Z,13.95
2022-10-23T17:34:54.050Z,13.98
2022-10-23T17:37:20.450Z,13.94
2022-10-23T17:39:46.815Z,13.86
2022-10-23T17:42:13.160Z,13.83
2022-10-23T17:44:39.559Z,13.89
2022-10-23T17:47:05.933Z,13.85
2022-10-23T17:49:32.342Z,13.85
2022-10-23T17:51:58.766Z,13.85
2022-10-23T17:54:26.609Z,13.85
2022-10-23T17:56:53.053Z,13.82
2022-10-23T17:59:19.682Z,13.80
2022-10-23T18:01:48.519Z,13.79
2022-10-23T18:04:17.782Z,13.83
2022-10-23T18:06:49.583Z,13.82
2022-10-23T18:09:16.408Z,13.75
2022-10-23T18:11:48.234Z,13.71
2022-10-23T18:14:16.279Z,13.77
2022-10-23T18:16:45.378Z,13.80
2022-10-23T18:19:11.848Z,13.76
2022-10-23T18:21:40.039Z,13.73
2022-10-23T18:24:07.285Z,13.75
2022-10-23T18:26:34.977Z,13.74
2022-10-23T18:29:04.086Z,13.72
2022-10-23T18:31:30.514Z,13.74
2022-10-23T18:34:03.990Z,13.71
2022-10-23T18:36:33.148Z,13.75
2022-10-23T18:38:59.508Z,13.75
2022-10-23T18:41:26.457Z,13.72
2022-10-23T18:43:54.262Z,13.75
2022-10-23T18:46:21.433Z,13.70
2022-10-23T18:48:50.798Z,13.70
2022-10-23T18:51:24.659Z,13.64
2022-10-23T18:53:51.417Z,13.63
2022-10-23T18:56:22.631Z,13.61
2022-10-23T18:58:54.860Z,13.62
2022-10-23T19:01:22.916Z,13.59
2022-10-23T19:03:49.613Z,13.54
2022-10-23T19:06:16.966Z,13.59
2022-10-23T19:08:49.427Z,13.59
2022-10-23T19:11:17.986Z,13.59
2022-10-23T19:13:46.985Z,13.63
2022-10-23T19:16:28.824Z,13.61
2022-10-23T19:33:04.334Z,13.64
2022-10-23T19:35:37.538Z,13.65
2022-10-23T19:38:04.653Z,13.63
2022-10-23T19:40:31.718Z,13.62
2022-10-23T19:42:58.464Z,13.62
2022-10-23T19:45:27.184Z,13.57
2022-10-23T19:47:54.471Z,13.58
2022-10-23T19:50:24.584Z,13.59
2022-10-23T19:52:51.465Z,13.63
2022-10-23T19:55:18.044Z,13.61
2022-10-23T19:57:47.786Z,13.63
2022-10-23T20:00:14.614Z,13.64
2022-10-23T20:02:42.280Z,13.62
2022-10-23T20:05:29.816Z,13.67
2022-10-23T20:08:04.468Z,13.63
2022-10-23T20:13:26.518Z,13.63
2022-10-23T20:15:53.062Z,13.62
2022-10-23T20:18:19.784Z,13.60
2022-10-23T20:20:46.317Z,13.62
2022-10-23T20:23:18.210Z,13.62
2022-10-23T20:25:47.688Z,13.58
2022-10-23T20:28:16.456Z,13.58
2022-10-23T20:30:47.842Z,13.56
2022-10-23T20:57:09.792Z,13.39
2022-10-23T21:02:32.838Z,13.49
2022-10-23T21:04:59.674Z,13.47
2022-10-23T21:07:26.929Z,13.47
2022-10-23T21:09:57.770Z,13.45
2022-10-23T21:12:26.347Z,13.40
2022-10-23T21:15:00.920Z,13.41
2022-10-23T21:17:29.578Z,13.41
2022-10-23T21:34:07.852Z,13.41
2022-10-23T21:37:11.476Z,13.48
2022-10-23T21:54:40.374Z,13.64
2022-10-23T21:57:13.928Z,13.69
2022-10-23T21:59:43.178Z,13.72
2022-10-23T22:02:19.396Z,13.74
2022-10-23T22:04:49.126Z,13.84
2022-10-23T22:07:15.799Z,13.88
2022-10-23T22:09:43.303Z,13.85
2022-10-23T22:12:11.405Z,13.86
2022-10-23T22:14:40.746Z,13.93
2022-10-23T22:17:08.185Z,13.95
2022-10-23T22:19:34.658Z,14.04
2022-10-23T22:22:01.579Z,14.10
2022-10-23T22:24:28.058Z,14.01
2022-10-23T23:01:34.914Z,13.67
2022-10-23T23:04:13.748Z,13.64
2022-10-23T23:39:48.744Z,13.58
2022-10-23T23:42:15.137Z,13.50
2022-10-23T23:44:55.812Z,13.50
2022-10-23T23:50:20.380Z,13.50
2022-10-23T23:52:59.598Z,13.43
2022-10-23T23:55:27.218Z,13.36
2022-10-23T23:57:55.371Z,13.32
